Terminal Aerodrome Forecast
Issued by NWS

Home | Current Version | Previous Version | Graphics & Text | Print | Product List | Glossary On
Versions: 1 2 3 4 5 6 7 8 9 10 11 12
413
FTUS43 KUNR 051720
TAFGCC
TAF
KGCC 051720Z 0518/0618 18011KT P6SM BKN250
     FM060600 21009KT P6SM BKN200
     FM061400 35025KT P6SM BKN040=

USA.gov is the U.S. government's official web portal to all federal, state and local government web resources and services.